createdAt,value
2022-12-01T13:47:39.933Z,49.17
2022-12-01T13:50:55.093Z,47.65
2022-12-01T13:54:12.714Z,49.20
2022-12-01T13:57:26.126Z,48.30
2022-12-01T14:00:35.283Z,50.15
2022-12-01T14:03:42.104Z,47.67
2022-12-01T14:06:49.967Z,49.63
2022-12-01T14:09:51.840Z,51.47
2022-12-01T14:12:51.121Z,48.53
2022-12-01T14:15:56.988Z,49.72
2022-12-01T14:18:58.230Z,54.00
2022-12-01T14:21:56.253Z,51.42
2022-12-01T14:24:54.574Z,54.88
2022-12-01T14:27:55.901Z,47.35
2022-12-01T14:31:04.671Z,46.85
2022-12-01T14:34:15.757Z,43.35
2022-12-01T14:37:23.472Z,45.15
2022-12-01T14:40:25.436Z,47.83
2022-12-01T14:43:39.731Z,42.72
2022-12-01T14:46:45.609Z,45.75
2022-12-01T14:50:02.377Z,47.22
2022-12-01T14:53:08.418Z,43.13
2022-12-01T14:56:15.636Z,44.35
2022-12-01T14:59:23.231Z,46.55
2022-12-01T15:02:21.430Z,49.15
2022-12-01T15:05:23.071Z,44.72
2022-12-01T15:08:41.979Z,47.25
2022-12-01T15:11:53.878Z,46.33
2022-12-01T15:14:53.280Z,44.72
2022-12-01T15:17:52.868Z,45.78
2022-12-01T15:20:57.354Z,45.05
2022-12-01T15:24:05.917Z,46.30
2022-12-01T15:27:04.469Z,44.17
2022-12-01T15:31:03.799Z,47.10
2022-12-01T15:34:05.550Z,40.40
2022-12-01T15:37:09.868Z,41.88
2022-12-01T15:43:47.978Z,41.08
2022-12-01T15:46:48.431Z,42.75
2022-12-01T15:49:50.546Z,45.63
2022-12-01T15:52:50.152Z,47.28
2022-12-01T15:55:55.532Z,43.72
2022-12-01T15:59:20.627Z,46.92
2022-12-01T16:02:32.496Z,42.40
2022-12-01T16:05:34.857Z,42.30
2022-12-01T16:08:33.116Z,43.70
2022-12-01T16:11:32.886Z,42.88
2022-12-01T16:14:32.567Z,44.85
2022-12-01T16:17:43.922Z,41.03
2022-12-01T16:20:44.524Z,40.65
2022-12-01T16:23:43.490Z,40.53
2022-12-01T16:26:52.338Z,42.55
2022-12-01T16:29:56.535Z,44.92
2022-12-01T16:33:03.437Z,42.28
2022-12-01T16:36:04.486Z,38.85
2022-12-01T16:39:08.361Z,41.35
2022-12-01T16:42:06.614Z,40.40
2022-12-01T16:45:04.675Z,42.95
2022-12-01T16:48:09.003Z,37.17
2022-12-01T16:51:08.706Z,37.17
2022-12-01T16:54:07.454Z,38.00
2022-12-01T16:57:05.393Z,48.13
2022-12-01T17:00:04.196Z,44.85
2022-12-01T17:03:02.379Z,39.72
2022-12-01T17:06:02.452Z,41.45
2022-12-01T17:09:00.928Z,41.10
2022-12-01T17:12:01.904Z,39.10
2022-12-01T17:14:59.753Z,38.17
2022-12-01T17:17:57.895Z,37.17
2022-12-01T17:21:03.282Z,35.92
2022-12-01T17:24:01.367Z,38.47
2022-12-01T17:26:59.334Z,39.33
2022-12-01T17:29:59.443Z,40.55
2022-12-01T17:32:58.303Z,36.88
2022-12-01T17:35:56.305Z,36.60
2022-12-01T17:38:54.671Z,36.95
2022-12-01T17:41:55.284Z,40.30
2022-12-01T17:44:53.107Z,37.08
2022-12-01T17:47:51.293Z,26.00
2022-12-01T17:50:49.096Z,26.80
2022-12-01T17:53:47.155Z,24.25
2022-12-01T17:56:44.974Z,25.60
2022-12-01T17:59:42.929Z,27.33
2022-12-01T18:02:40.818Z,29.98
2022-12-01T18:05:39.246Z,28.50
2022-12-01T18:08:38.162Z,28.75
2022-12-01T18:11:36.162Z,28.48
2022-12-01T18:14:35.103Z,27.88
2022-12-01T18:17:33.044Z,29.02
2022-12-01T18:20:30.836Z,34.72
2022-12-01T18:23:28.769Z,36.28
2022-12-01T18:26:28.365Z,35.72
2022-12-01T18:29:26.541Z,37.47
2022-12-01T18:32:24.384Z,36.15
2022-12-01T18:35:23.102Z,30.23
2022-12-01T18:38:25.428Z,28.20
2022-12-01T18:41:23.468Z,29.10
2022-12-01T18:44:21.447Z,25.58
2022-12-01T18:47:19.456Z,18.65
2022-12-01T18:50:17.378Z,15.25
2022-12-01T18:53:15.395Z,15.00
2022-12-01T18:56:15.355Z,15.18
2022-12-01T18:59:15.198Z,15.85
2022-12-01T19:02:13.054Z,21.35
2022-12-01T19:05:11.290Z,24.67
2022-12-01T19:08:09.133Z,25.23
2022-12-01T19:11:07.796Z,24.17
2022-12-01T19:14:06.032Z,25.10
2022-12-01T19:17:04.028Z,21.92
2022-12-01T19:20:01.907Z,23.80
2022-12-01T19:23:00.132Z,28.08
2022-12-01T19:25:58.057Z,27.13
2022-12-01T19:28:56.030Z,31.40
2022-12-01T19:31:54.050Z,32.70
2022-12-01T19:34:52.258Z,30.33
2022-12-01T19:37:51.937Z,30.48
2022-12-01T19:40:50.844Z,28.23
2022-12-01T19:43:49.101Z,26.52
2022-12-01T19:46:47.072Z,27.63
2022-12-01T19:49:44.907Z,28.65
2022-12-01T19:52:42.962Z,25.58
2022-12-01T19:55:40.845Z,38.33
2022-12-01T19:58:39.001Z,36.97
2022-12-01T20:01:36.864Z,38.40
2022-12-01T20:04:35.050Z,32.22
2022-12-01T20:07:32.948Z,31.05
2022-12-01T20:10:31.081Z,29.35
2022-12-01T20:13:30.679Z,28.88
2022-12-01T20:16:31.167Z,29.13
2022-12-01T20:19:29.106Z,23.97
2022-12-01T20:22:27.081Z,16.48
2022-12-01T20:25:24.975Z,10.15
2022-12-01T20:28:22.930Z,5.20
2022-12-01T20:31:24.976Z,4.30
2022-12-01T20:34:27.573Z,3.58
2022-12-01T20:37:25.409Z,3.63
2022-12-01T20:40:23.546Z,16.90
2022-12-01T20:43:23.929Z,17.92
2022-12-01T20:46:23.220Z,19.90
2022-12-01T20:49:21.700Z,16.83
2022-12-01T20:52:19.749Z,12.60
2022-12-01T20:55:18.336Z,18.52
2022-12-01T20:58:16.304Z,23.38
2022-12-01T21:04:28.593Z,30.13
2022-12-01T21:07:26.581Z,29.88
2022-12-01T21:10:24.723Z,32.95
2022-12-01T21:13:40.332Z,27.20
2022-12-01T21:16:41.759Z,29.50
2022-12-01T21:19:50.833Z,30.73
2022-12-01T21:22:51.014Z,31.17
2022-12-01T21:25:51.409Z,32.25
2022-12-01T21:28:49.361Z,32.50
2022-12-01T21:31:49.397Z,32.85
2022-12-01T21:34:49.107Z,30.13
2022-12-01T21:37:48.614Z,33.10
2022-12-01T21:40:47.467Z,32.75
2022-12-01T21:43:45.579Z,36.72
2022-12-01T21:46:44.528Z,33.05
2022-12-01T21:49:42.587Z,32.28
2022-12-01T21:52:42.794Z,31.15
2022-12-01T21:55:43.675Z,27.17
2022-12-01T21:58:41.611Z,25.80
2022-12-01T22:01:41.368Z,18.70
2022-12-01T22:04:41.774Z,14.57
2022-12-01T22:07:39.631Z,10.13
2022-12-01T22:10:58.662Z,6.95
2022-12-01T22:14:12.152Z,6.93
2022-12-01T22:17:21.648Z,5.10
2022-12-01T22:20:23.636Z,4.28
2022-12-01T22:23:22.756Z,4.25
2022-12-01T22:26:21.856Z,3.63
2022-12-01T22:29:44.391Z,2.95
2022-12-01T22:32:59.808Z,3.28
2022-12-01T22:35:57.775Z,3.08
2022-12-01T22:38:56.883Z,2.90
2022-12-01T22:41:59.703Z,3.53
2022-12-01T22:45:03.855Z,4.32
2022-12-01T22:48:05.204Z,4.18
2022-12-01T22:51:21.795Z,4.68
2022-12-01T22:54:29.983Z,4.90
2022-12-01T22:57:33.681Z,4.93
2022-12-01T23:00:31.791Z,4.70
2022-12-01T23:03:29.659Z,4.53
2022-12-01T23:06:58.306Z,3.78
2022-12-01T23:10:14.883Z,4.57
2022-12-01T23:13:19.390Z,4.43
2022-12-01T23:16:17.269Z,4.18
2022-12-01T23:19:15.265Z,3.97
2022-12-01T23:22:13.428Z,3.85
2022-12-01T23:25:15.763Z,3.92
2022-12-01T23:28:14.557Z,3.55
2022-12-01T23:31:12.774Z,4.43
2022-12-01T23:34:15.892Z,4.63
2022-12-01T23:37:34.706Z,6.72
2022-12-01T23:40:36.449Z,6.90
2022-12-01T23:43:38.297Z,15.88
2022-12-01T23:46:37.364Z,19.50
2022-12-01T23:49:36.850Z,23.30
2022-12-01T23:52:37.485Z,22.45
2022-12-01T23:55:35.571Z,23.55
2022-12-01T23:58:34.377Z,25.75
